createdAt,value
2022-11-27T00:00:45.006Z,6.18
2022-11-27T00:03:11.730Z,5.95
2022-11-27T00:05:38.318Z,6.22
2022-11-27T00:08:04.950Z,6.20
2022-11-27T00:10:31.453Z,5.90
2022-11-27T00:12:57.985Z,6.45
2022-11-27T00:15:24.516Z,5.72
2022-11-27T00:17:52.107Z,6.70
2022-11-27T00:20:18.690Z,6.72
2022-11-27T00:22:45.214Z,6.60
2022-11-27T00:25:11.694Z,6.47
2022-11-27T00:27:38.210Z,6.55
2022-11-27T00:30:05.257Z,6.70
2022-11-27T00:32:31.714Z,6.38
2022-11-27T00:34:58.186Z,6.32
2022-11-27T00:37:24.706Z,7.00
2022-11-27T00:39:51.226Z,7.32
2022-11-27T00:42:17.738Z,6.93
2022-11-27T00:44:44.211Z,6.70
2022-11-27T00:47:10.715Z,6.82
2022-11-27T00:49:37.265Z,6.93
2022-11-27T00:52:03.884Z,7.28
2022-11-27T00:54:30.443Z,6.85
2022-11-27T00:56:56.959Z,7.07
2022-11-27T00:59:23.468Z,7.28
2022-11-27T01:01:50.356Z,7.40
2022-11-27T01:04:17.365Z,6.78
2022-11-27T01:06:44.588Z,6.85
2022-11-27T01:09:12.964Z,6.68
2022-11-27T01:11:40.131Z,6.97
2022-11-27T01:14:16.130Z,6.90
2022-11-27T01:16:43.549Z,7.28
2022-11-27T01:19:11.820Z,7.45
2022-11-27T01:21:38.339Z,7.05
2022-11-27T01:24:05.508Z,6.75
2022-11-27T01:26:32.085Z,7.28
2022-11-27T01:28:59.653Z,7.05
2022-11-27T01:31:30.614Z,6.95
2022-11-27T01:34:00.080Z,7.80
2022-11-27T01:36:27.471Z,7.63
2022-11-27T01:38:54.418Z,7.60
2022-11-27T01:41:27.355Z,7.88
2022-11-27T01:43:56.709Z,8.10
2022-11-27T01:46:26.086Z,8.27
2022-11-27T01:48:55.789Z,8.40
2022-11-27T01:51:22.974Z,8.50
2022-11-27T01:53:51.787Z,7.57
2022-11-27T01:56:19.691Z,8.18
2022-11-27T01:58:46.638Z,8.35
2022-11-27T02:01:13.362Z,7.95
2022-11-27T02:03:40.014Z,8.13
2022-11-27T02:06:06.758Z,7.68
2022-11-27T02:08:33.301Z,7.72
2022-11-27T02:11:06.523Z,8.13
2022-11-27T02:13:36.484Z,8.13
2022-11-27T02:16:21.068Z,8.00
2022-11-27T02:18:57.381Z,7.75
2022-11-27T02:21:47.115Z,7.88
2022-11-27T02:24:49.642Z,7.63
2022-11-27T02:27:25.968Z,7.50
2022-11-27T02:29:57.221Z,7.95
2022-11-27T02:32:26.586Z,7.22
2022-11-27T02:35:04.362Z,7.72
2022-11-27T02:37:37.017Z,8.38
2022-11-27T02:40:09.471Z,7.55
2022-11-27T02:42:44.382Z,8.23
2022-11-27T02:45:17.340Z,7.65
2022-11-27T02:47:46.223Z,7.63
2022-11-27T02:50:18.156Z,8.10
2022-11-27T02:55:16.482Z,7.97
2022-11-27T02:57:44.986Z,7.55
2022-11-27T03:00:12.390Z,7.38
2022-11-27T03:02:46.294Z,7.93
2022-11-27T03:05:19.833Z,7.20
2022-11-27T03:08:09.998Z,7.45
2022-11-27T03:10:47.951Z,7.28
2022-11-27T03:13:14.537Z,7.70
2022-11-27T03:15:49.719Z,7.03
2022-11-27T03:18:32.794Z,8.13
2022-11-27T03:21:09.186Z,7.38
2022-11-27T03:23:35.738Z,7.10
2022-11-27T03:26:02.238Z,6.78
2022-11-27T03:28:29.507Z,6.45
2022-11-27T03:30:56.089Z,6.97
2022-11-27T03:33:22.542Z,6.80
2022-11-27T03:35:49.002Z,6.90
2022-11-27T03:38:15.597Z,6.53
2022-11-27T03:41:19.649Z,7.18
2022-11-27T03:43:58.463Z,7.07
2022-11-27T03:46:38.648Z,6.90
2022-11-27T03:49:22.050Z,6.35
2022-11-27T03:52:02.468Z,6.78
2022-11-27T03:54:52.722Z,6.68
2022-11-27T03:57:46.384Z,6.57
2022-11-27T04:00:13.533Z,6.10
2022-11-27T04:02:46.188Z,6.60
2022-11-27T04:05:14.515Z,6.57
2022-11-27T04:07:41.299Z,6.22
2022-11-27T04:10:09.923Z,6.30
2022-11-27T04:12:36.777Z,6.43
2022-11-27T04:15:03.837Z,6.68
2022-11-27T04:17:30.339Z,6.07
2022-11-27T04:19:56.871Z,6.30
2022-11-27T04:22:23.591Z,5.95
2022-11-27T04:24:50.201Z,6.18
2022-11-27T04:27:16.901Z,6.10
2022-11-27T04:29:43.573Z,5.72
2022-11-27T04:32:10.414Z,5.97
2022-11-27T04:34:36.938Z,6.20
2022-11-27T04:37:03.450Z,6.40
2022-11-27T04:39:29.930Z,6.63
2022-11-27T04:41:56.575Z,6.45
2022-11-27T04:44:23.095Z,5.80
2022-11-27T04:46:50.343Z,5.97
2022-11-27T04:49:16.889Z,6.15
2022-11-27T04:51:43.458Z,5.90
2022-11-27T04:54:09.984Z,6.15
2022-11-27T04:56:36.501Z,6.00
2022-11-27T04:59:04.887Z,5.63
2022-11-27T05:01:31.910Z,6.22
2022-11-27T05:03:58.457Z,6.07
2022-11-27T05:06:24.953Z,6.28
2022-11-27T05:08:51.410Z,6.13
2022-11-27T05:11:18.247Z,6.13
2022-11-27T05:13:44.824Z,5.50
2022-11-27T05:16:12.525Z,6.07
2022-11-27T05:18:39.048Z,5.88
2022-11-27T05:21:07.850Z,5.53
2022-11-27T05:23:34.822Z,5.70
2022-11-27T05:26:01.324Z,5.68
2022-11-27T05:28:27.899Z,5.22
2022-11-27T05:30:54.630Z,5.50
2022-11-27T05:33:21.326Z,5.43
2022-11-27T05:35:47.883Z,5.20
2022-11-27T05:38:14.422Z,5.30
2022-11-27T05:40:40.987Z,5.63
2022-11-27T05:43:07.461Z,5.10
2022-11-27T05:45:33.988Z,5.60
2022-11-27T05:48:00.469Z,6.13
2022-11-27T05:50:27.088Z,5.40
2022-11-27T05:52:53.559Z,5.57
2022-11-27T05:55:20.089Z,5.65
2022-11-27T05:57:46.672Z,5.82
2022-11-27T06:00:14.165Z,5.60
2022-11-27T06:02:40.806Z,5.47
2022-11-27T06:05:08.103Z,5.47
2022-11-27T06:07:34.640Z,5.55
2022-11-27T06:10:01.187Z,5.32
2022-11-27T06:12:27.781Z,5.45
2022-11-27T06:14:54.278Z,5.50
2022-11-27T06:17:20.819Z,5.45
2022-11-27T06:19:47.395Z,5.72
2022-11-27T06:22:13.891Z,6.40
2022-11-27T06:24:40.816Z,5.82
2022-11-27T06:27:07.534Z,5.70
2022-11-27T06:29:34.017Z,5.40
2022-11-27T06:32:00.524Z,5.70
2022-11-27T06:34:27.037Z,5.72
2022-11-27T06:36:53.550Z,5.43
2022-11-27T06:39:20.073Z,5.68
2022-11-27T06:41:46.645Z,5.47
2022-11-27T06:44:13.268Z,6.10
2022-11-27T06:46:39.782Z,5.38
2022-11-27T06:49:06.463Z,5.70
2022-11-27T06:51:32.982Z,5.80
2022-11-27T06:54:00.859Z,5.65
2022-11-27T06:56:29.803Z,5.88
2022-11-27T06:58:58.835Z,5.60
2022-11-27T07:01:30.033Z,6.15
2022-11-27T07:03:56.913Z,6.00
2022-11-27T07:06:25.844Z,5.70
2022-11-27T07:08:53.543Z,5.65
2022-11-27T07:11:22.775Z,5.85
2022-11-27T07:13:50.521Z,5.82
2022-11-27T07:16:18.624Z,6.10
2022-11-27T07:18:50.844Z,5.75
2022-11-27T07:21:17.905Z,5.85
2022-11-27T07:23:44.715Z,6.35
2022-11-27T07:26:17.092Z,6.10
2022-11-27T07:28:44.264Z,6.13
2022-11-27T07:31:12.633Z,5.65
2022-11-27T07:33:39.353Z,6.10
2022-11-27T07:36:14.995Z,5.90
2022-11-27T07:38:42.110Z,6.25
2022-11-27T07:41:09.257Z,6.15
2022-11-27T07:43:36.859Z,6.22
2022-11-27T07:46:10.236Z,6.22
2022-11-27T07:48:37.652Z,5.78
2022-11-27T07:51:13.472Z,7.60
2022-11-27T07:53:40.953Z,9.10
2022-11-27T07:56:09.673Z,9.40
2022-11-27T07:58:36.614Z,13.68
2022-11-27T08:01:11.547Z,14.90
2022-11-27T08:03:38.463Z,12.40
2022-11-27T08:06:05.732Z,10.70
2022-11-27T08:08:33.043Z,9.93
2022-11-27T08:10:59.504Z,8.70
2022-11-27T08:13:25.972Z,8.45
2022-11-27T08:15:52.432Z,8.20
2022-11-27T08:18:19.031Z,8.27
2022-11-27T08:20:45.560Z,8.40
2022-11-27T08:23:12.083Z,8.30
2022-11-27T08:25:38.605Z,8.25
2022-11-27T08:28:05.206Z,8.50
2022-11-27T08:30:31.706Z,8.23
2022-11-27T08:32:58.268Z,8.23
2022-11-27T08:35:24.817Z,8.18
2022-11-27T08:37:51.465Z,8.25
2022-11-27T08:40:18.061Z,9.07
2022-11-27T08:42:44.591Z,8.90
2022-11-27T08:45:11.346Z,8.23
2022-11-27T08:47:37.968Z,9.45
2022-11-27T08:50:04.949Z,13.45
2022-11-27T08:52:32.099Z,11.35
2022-11-27T08:54:59.076Z,9.55
2022-11-27T08:57:25.551Z,9.07
2022-11-27T08:59:52.261Z,9.88
2022-11-27T09:02:18.788Z,9.60
2022-11-27T09:04:45.330Z,9.77
2022-11-27T09:07:14.967Z,9.63
2022-11-27T09:09:41.566Z,9.60
2022-11-27T09:12:08.046Z,10.02
2022-11-27T09:14:34.565Z,9.55
2022-11-27T09:17:01.083Z,9.75
2022-11-27T09:19:27.652Z,9.40
2022-11-27T09:21:54.167Z,10.45
2022-11-27T09:24:20.702Z,10.80
2022-11-27T09:26:47.187Z,10.30
2022-11-27T09:29:13.667Z,10.02
2022-11-27T09:31:40.229Z,10.88
2022-11-27T09:34:06.868Z,10.25
2022-11-27T09:36:33.349Z,10.30
2022-11-27T09:39:00.275Z,10.55
2022-11-27T09:41:39.340Z,10.45
2022-11-27T09:44:17.834Z,10.02
2022-11-27T09:46:44.699Z,10.90
2022-11-27T09:49:19.870Z,10.70
2022-11-27T09:51:54.910Z,10.80
2022-11-27T09:54:26.778Z,11.50
2022-11-27T09:56:56.075Z,11.13
2022-11-27T09:59:29.608Z,11.05
2022-11-27T10:01:56.837Z,10.48
2022-11-27T10:04:24.968Z,11.02
2022-11-27T10:07:03.364Z,11.23
2022-11-27T10:09:44.373Z,10.25
2022-11-27T10:12:45.066Z,10.63
2022-11-27T10:15:31.403Z,10.95
2022-11-27T10:18:10.406Z,10.70
2022-11-27T10:20:43.551Z,10.95
2022-11-27T10:23:52.473Z,10.73
2022-11-27T10:26:29.104Z,10.80
2022-11-27T10:29:11.649Z,11.60
2022-11-27T10:31:53.850Z,11.45
2022-11-27T10:34:30.778Z,10.90
2022-11-27T10:37:00.851Z,11.50
2022-11-27T10:39:41.069Z,11.20
2022-11-27T10:42:21.917Z,11.32
2022-11-27T10:44:53.458Z,11.85
2022-11-27T10:47:23.034Z,12.13
2022-11-27T10:49:49.596Z,12.48
2022-11-27T10:52:19.189Z,12.80
2022-11-27T10:54:55.883Z,12.68
2022-11-27T10:57:34.174Z,11.50
2022-11-27T11:00:11.663Z,11.93
2022-11-27T11:02:39.658Z,12.07
2022-11-27T11:05:37.260Z,11.82
2022-11-27T11:08:14.522Z,11.65
2022-11-27T11:10:49.375Z,12.27
2022-11-27T11:13:17.830Z,11.85
2022-11-27T11:16:14.431Z,12.75
2022-11-27T11:18:50.205Z,11.68
2022-11-27T11:21:23.202Z,11.18
2022-11-27T11:23:58.519Z,12.93
2022-11-27T11:26:29.552Z,13.07
2022-11-27T11:28:59.638Z,12.90
2022-11-27T11:31:34.150Z,12.32
2022-11-27T11:34:03.965Z,12.90
2022-11-27T11:36:30.514Z,13.05
2022-11-27T11:38:57.557Z,21.55
2022-11-27T11:41:24.788Z,34.35
2022-11-27T11:44:01.365Z,24.98
2022-11-27T11:46:32.818Z,14.32
2022-11-27T11:49:05.373Z,12.50
2022-11-27T11:51:34.731Z,11.80
2022-11-27T11:54:17.787Z,12.30
2022-11-27T11:56:52.384Z,12.20
2022-11-27T11:59:47.023Z,11.80
2022-11-27T12:02:47.419Z,12.10
2022-11-27T12:05:58.586Z,11.75
2022-11-27T12:08:41.725Z,11.93
2022-11-27T12:11:15.979Z,11.70
2022-11-27T12:13:49.263Z,11.30
2022-11-27T12:16:29.072Z,11.68
2022-11-27T12:19:24.189Z,11.80
2022-11-27T12:22:09.108Z,13.02
2022-11-27T12:24:59.887Z,12.13
2022-11-27T12:27:56.202Z,12.27
2022-11-27T12:30:36.091Z,12.70
2022-11-27T12:33:21.359Z,11.48
2022-11-27T12:35:59.122Z,11.93
2022-11-27T12:38:55.488Z,12.80
2022-11-27T12:41:40.233Z,11.88
2022-11-27T12:44:17.793Z,12.18
2022-11-27T12:47:02.521Z,11.52
2022-11-27T12:49:34.690Z,12.30
2022-11-27T12:52:11.543Z,11.65
2022-11-27T12:54:47.822Z,11.90
2022-11-27T12:57:20.710Z,11.27
2022-11-27T12:59:52.818Z,11.98
2022-11-27T13:02:32.849Z,12.82
2022-11-27T13:05:07.232Z,11.70
2022-11-27T13:07:38.636Z,12.20
2022-11-27T13:10:29.942Z,12.10
2022-11-27T13:13:11.614Z,11.93
2022-11-27T13:15:47.743Z,12.18
2022-11-27T13:18:26.297Z,11.73
2022-11-27T13:20:53.167Z,12.02
2022-11-27T13:23:21.110Z,11.52
2022-11-27T13:25:54.732Z,12.07
2022-11-27T13:28:35.841Z,11.15
2022-11-27T13:31:03.780Z,12.33
2022-11-27T13:33:44.074Z,11.80
2022-11-27T13:36:27.209Z,12.63
2022-11-27T13:38:57.753Z,11.93
2022-11-27T13:41:32.707Z,12.25
2022-11-27T13:43:59.399Z,12.80
2022-11-27T13:46:29.026Z,12.55
2022-11-27T13:49:01.462Z,12.60
2022-11-27T13:51:31.420Z,12.20
2022-11-27T13:54:21.324Z,12.07
2022-11-27T13:56:51.099Z,12.45
2022-11-27T13:59:21.105Z,13.25
2022-11-27T14:01:59.385Z,13.38
2022-11-27T14:04:33.341Z,13.93
2022-11-27T14:07:06.908Z,13.35
2022-11-27T14:10:06.483Z,12.68
2022-11-27T14:12:33.911Z,11.80
2022-11-27T14:15:02.867Z,11.85
2022-11-27T14:17:40.603Z,12.75
2022-11-27T14:20:09.875Z,12.77
2022-11-27T14:23:10.488Z,11.98
2022-11-27T14:25:36.404Z,11.70
2022-11-27T14:28:02.806Z,12.00
2022-11-27T14:30:35.632Z,10.68
2022-11-27T14:33:03.696Z,11.57
2022-11-27T14:35:30.346Z,11.80
2022-11-27T14:38:11.146Z,11.75
2022-11-27T14:40:38.347Z,12.30
2022-11-27T14:43:09.505Z,11.95
2022-11-27T14:45:36.629Z,11.73
2022-11-27T14:48:04.034Z,11.57
2022-11-27T14:50:30.558Z,10.63
2022-11-27T14:52:58.191Z,11.75
2022-11-27T14:55:28.966Z,12.32
2022-11-27T14:58:01.306Z,12.70
2022-11-27T15:00:28.745Z,11.10
2022-11-27T15:02:56.633Z,11.30
2022-11-27T15:05:28.872Z,11.23
2022-11-27T15:07:58.422Z,11.27
2022-11-27T15:10:33.024Z,10.73
2022-11-27T15:13:01.394Z,10.70
2022-11-27T15:15:29.954Z,11.30
2022-11-27T15:18:00.150Z,11.20
2022-11-27T15:20:42.558Z,11.23
2022-11-27T15:23:20.378Z,10.95
2022-11-27T15:26:15.097Z,10.98
2022-11-27T15:28:53.809Z,10.57
2022-11-27T15:31:37.610Z,10.02
2022-11-27T15:34:07.058Z,10.00
2022-11-27T15:36:43.160Z,11.40
2022-11-27T15:39:34.434Z,10.80
2022-11-27T15:42:03.747Z,11.73
2022-11-27T15:44:32.243Z,11.30
2022-11-27T15:47:01.318Z,10.65
2022-11-27T15:49:28.398Z,10.85
2022-11-27T15:51:56.489Z,10.55
2022-11-27T15:54:23.601Z,10.60
2022-11-27T15:56:50.447Z,9.73
2022-11-27T15:59:19.911Z,9.93
2022-11-27T16:01:46.566Z,9.40
2022-11-27T16:04:13.044Z,9.77
2022-11-27T16:06:39.965Z,10.30
2022-11-27T16:09:06.542Z,9.95
2022-11-27T16:11:34.080Z,9.90
2022-11-27T16:14:00.650Z,10.93
2022-11-27T16:16:27.502Z,10.50
2022-11-27T16:18:59.792Z,10.50
2022-11-27T16:21:29.591Z,11.10
2022-11-27T16:23:58.676Z,11.70
2022-11-27T16:26:25.744Z,11.40
2022-11-27T16:28:52.349Z,10.73
2022-11-27T16:31:18.940Z,10.65
2022-11-27T16:33:45.872Z,10.50
2022-11-27T16:36:16.282Z,11.10
2022-11-27T16:38:43.360Z,13.35
2022-11-27T16:41:15.744Z,13.07
2022-11-27T16:43:45.180Z,13.88
2022-11-27T16:46:14.592Z,14.57
2022-11-27T16:48:43.028Z,18.08
2022-11-27T16:51:13.247Z,16.42
2022-11-27T16:53:41.809Z,15.55
2022-11-27T16:56:10.248Z,13.85
2022-11-27T16:58:39.444Z,10.82
2022-11-27T17:01:11.552Z,10.40
2022-11-27T17:03:38.559Z,10.68
2022-11-27T17:06:24.733Z,10.00
2022-11-27T17:08:53.183Z,10.32
2022-11-27T17:11:25.546Z,9.70
2022-11-27T17:13:55.893Z,10.48
2022-11-27T17:16:22.814Z,10.52
2022-11-27T17:18:49.676Z,9.63
2022-11-27T17:21:26.362Z,10.15
2022-11-27T17:23:55.733Z,9.10
2022-11-27T17:26:24.249Z,10.50
2022-11-27T17:28:51.487Z,11.00
2022-11-27T17:31:20.881Z,10.55
2022-11-27T17:33:48.897Z,10.18
2022-11-27T17:36:15.751Z,10.18
2022-11-27T17:38:42.380Z,9.70
2022-11-27T17:41:11.334Z,9.20
2022-11-27T17:43:38.854Z,9.77
2022-11-27T17:46:16.969Z,10.05
2022-11-27T17:48:43.778Z,9.82
2022-11-27T17:51:10.964Z,9.73
2022-11-27T17:53:37.793Z,10.50
2022-11-27T17:56:06.625Z,10.85
2022-11-27T17:58:33.601Z,11.05
2022-11-27T18:01:00.202Z,11.15
2022-11-27T18:03:30.445Z,11.50
2022-11-27T18:06:01.590Z,14.32
2022-11-27T18:08:28.153Z,11.93
2022-11-27T18:10:54.717Z,11.88
2022-11-27T18:13:21.253Z,12.35
2022-11-27T18:15:48.104Z,13.00
2022-11-27T18:18:14.676Z,12.68
2022-11-27T18:20:41.280Z,12.70
2022-11-27T18:23:07.781Z,11.75
2022-11-27T18:25:34.394Z,11.98
2022-11-27T18:28:03.100Z,11.98
2022-11-27T18:30:29.650Z,11.30
2022-11-27T18:32:56.125Z,11.95
2022-11-27T18:35:23.958Z,11.27
2022-11-27T18:37:50.477Z,11.75
2022-11-27T18:40:17.002Z,11.18
2022-11-27T18:42:43.457Z,11.35
2022-11-27T18:45:31.229Z,11.52
2022-11-27T18:47:58.218Z,11.25
2022-11-27T18:50:29.464Z,11.25
2022-11-27T18:52:56.512Z,10.82
2022-11-27T18:55:23.171Z,11.70
2022-11-27T18:57:49.662Z,11.30
2022-11-27T19:00:17.273Z,11.45
2022-11-27T19:02:43.810Z,11.40
2022-11-27T19:05:10.369Z,11.00
2022-11-27T19:07:37.400Z,12.43
2022-11-27T19:10:04.097Z,12.30
2022-11-27T19:12:30.583Z,12.43
2022-11-27T19:14:57.189Z,12.20
2022-11-27T19:17:26.776Z,10.70
2022-11-27T19:19:57.404Z,11.25
2022-11-27T19:22:25.151Z,11.45
2022-11-27T19:24:53.017Z,11.38
2022-11-27T19:27:19.534Z,11.75
2022-11-27T19:29:48.855Z,11.25
2022-11-27T19:32:15.389Z,11.05
2022-11-27T19:34:42.361Z,11.25
2022-11-27T19:37:09.179Z,11.60
2022-11-27T19:39:35.795Z,12.90
2022-11-27T19:42:02.363Z,11.95
2022-11-27T19:44:28.898Z,12.10
2022-11-27T19:46:55.495Z,11.95
2022-11-27T19:49:23.283Z,11.32
2022-11-27T19:51:49.855Z,11.48
2022-11-27T19:54:19.263Z,11.65
2022-11-27T19:56:46.070Z,10.85
2022-11-27T19:59:12.950Z,12.45
2022-11-27T20:01:41.007Z,12.20
2022-11-27T20:04:10.376Z,12.80
2022-11-27T20:06:36.897Z,13.35
2022-11-27T20:09:05.440Z,12.60
2022-11-27T20:11:35.542Z,12.35
2022-11-27T20:14:04.908Z,12.00
2022-11-27T20:16:33.099Z,12.05
2022-11-27T20:19:01.873Z,10.18
2022-11-27T20:21:28.463Z,10.95
2022-11-27T20:23:55.199Z,10.43
2022-11-27T20:26:27.251Z,9.88
2022-11-27T20:28:54.434Z,10.15
2022-11-27T20:31:27.512Z,10.55
2022-11-27T20:33:57.066Z,11.10
2022-11-27T20:36:25.175Z,10.40
2022-11-27T20:38:52.263Z,11.50
2022-11-27T20:41:21.054Z,12.20
2022-11-27T20:43:50.663Z,11.82
2022-11-27T20:46:18.018Z,11.90
2022-11-27T20:48:49.008Z,11.45
2022-11-27T20:51:18.403Z,11.80
2022-11-27T20:53:46.730Z,11.15
2022-11-27T20:56:15.486Z,11.32
2022-11-27T20:58:43.869Z,11.32
2022-11-27T21:01:23.100Z,11.52
2022-11-27T21:03:52.490Z,13.00
2022-11-27T21:06:23.167Z,11.98
2022-11-27T21:08:49.868Z,12.98
2022-11-27T21:11:27.510Z,12.98
2022-11-27T21:14:13.966Z,13.77
2022-11-27T21:16:44.725Z,12.50
2022-11-27T21:19:26.379Z,12.68
2022-11-27T21:21:55.414Z,12.93
2022-11-27T21:24:23.368Z,12.70
2022-11-27T21:26:50.090Z,11.85
2022-11-27T21:29:17.000Z,11.70
2022-11-27T21:31:46.747Z,11.70
2022-11-27T21:34:15.118Z,12.20
2022-11-27T21:36:42.013Z,11.80
2022-11-27T21:39:11.304Z,11.70
2022-11-27T21:41:37.935Z,11.95
2022-11-27T21:44:05.289Z,11.85
2022-11-27T21:46:32.722Z,11.48
2022-11-27T21:49:02.980Z,11.90
2022-11-27T21:51:30.242Z,12.15
2022-11-27T21:53:58.768Z,11.18
2022-11-27T21:56:27.761Z,11.00
2022-11-27T21:58:54.404Z,11.77
2022-11-27T22:01:23.531Z,11.57
2022-11-27T22:03:51.377Z,11.60
2022-11-27T22:06:19.049Z,11.35
2022-11-27T22:08:47.631Z,11.23
2022-11-27T22:11:17.139Z,11.57
2022-11-27T22:13:43.930Z,11.85
2022-11-27T22:16:16.921Z,11.20
2022-11-27T22:18:44.291Z,11.02
2022-11-27T22:21:12.170Z,10.55
2022-11-27T22:23:39.851Z,10.35
2022-11-27T22:26:09.994Z,10.48
2022-11-27T22:28:37.609Z,10.80
2022-11-27T22:31:11.751Z,10.82
2022-11-27T22:33:41.159Z,10.68
2022-11-27T22:36:17.597Z,10.95
2022-11-27T22:38:45.906Z,10.73
2022-11-27T22:41:14.049Z,11.00
2022-11-27T22:43:40.945Z,9.80
2022-11-27T22:46:20.320Z,10.52
2022-11-27T22:48:47.332Z,10.13
2022-11-27T22:51:13.960Z,9.77
2022-11-27T22:53:40.471Z,10.68
2022-11-27T22:56:12.437Z,10.40
2022-11-27T22:58:41.673Z,10.60
2022-11-27T23:01:13.443Z,11.13
2022-11-27T23:03:40.272Z,10.57
2022-11-27T23:06:11.718Z,10.73
2022-11-27T23:08:39.905Z,10.50
2022-11-27T23:11:06.822Z,11.15
2022-11-27T23:13:33.395Z,10.88
2022-11-27T23:16:04.784Z,11.38
2022-11-27T23:18:32.116Z,10.63
2022-11-27T23:20:58.784Z,10.70
2022-11-27T23:23:25.440Z,10.15
2022-11-27T23:25:51.975Z,9.18
2022-11-27T23:28:18.441Z,9.85
2022-11-27T23:30:44.995Z,10.30
2022-11-27T23:33:11.477Z,10.20
2022-11-27T23:35:38.098Z,10.50
2022-11-27T23:38:04.727Z,10.70
2022-11-27T23:40:31.237Z,9.85
2022-11-27T23:42:57.787Z,9.57
2022-11-27T23:45:24.319Z,8.95
2022-11-27T23:47:50.858Z,9.27
2022-11-27T23:50:17.683Z,8.45
2022-11-27T23:52:44.178Z,9.30
2022-11-27T23:55:10.823Z,9.05
2022-11-27T23:57:37.366Z,8.45
